createdAt,value
2022-11-17T00:01:56.196Z,58.10
2022-11-17T00:04:35.177Z,63.20
2022-11-17T00:07:06.002Z,60.60
2022-11-17T00:09:36.826Z,62.00
2022-11-17T00:12:33.003Z,61.50
2022-11-17T00:15:03.868Z,61.70
2022-11-17T00:17:34.556Z,61.50
2022-11-17T00:20:23.899Z,61.20
2022-11-17T00:22:55.476Z,63.10
2022-11-17T00:25:26.258Z,60.80
2022-11-17T00:27:57.494Z,63.40
2022-11-17T00:30:46.542Z,61.30
2022-11-17T00:33:35.526Z,61.60
2022-11-17T00:36:06.432Z,60.60
2022-11-17T00:38:37.552Z,61.30
2022-11-17T00:41:08.217Z,61.70
2022-11-17T00:43:39.536Z,62.10
2022-11-17T00:46:10.473Z,64.30
2022-11-17T00:48:41.080Z,64.30
2022-11-17T00:51:11.684Z,62.40
2022-11-17T00:53:42.322Z,63.10
2022-11-17T00:56:13.080Z,63.00
2022-11-17T00:58:46.773Z,62.30
2022-11-17T01:01:19.014Z,62.50
2022-11-17T01:03:50.793Z,60.60
2022-11-17T01:06:31.760Z,60.50
2022-11-17T01:09:03.933Z,60.60
2022-11-17T01:11:36.333Z,57.60
2022-11-17T01:14:07.231Z,57.60
2022-11-17T01:16:38.019Z,60.70
2022-11-17T01:19:11.163Z,56.80
2022-11-17T01:21:42.023Z,57.40
2022-11-17T01:24:14.469Z,57.60
2022-11-17T01:26:45.803Z,57.10
2022-11-17T01:29:19.357Z,56.60
2022-11-17T01:31:54.423Z,59.60
2022-11-17T01:34:25.279Z,59.20
2022-11-17T01:37:13.599Z,57.90
2022-11-17T01:39:44.487Z,59.50
2022-11-17T01:42:25.540Z,59.50
2022-11-17T01:45:26.568Z,56.70
2022-11-17T01:48:05.744Z,59.30
2022-11-17T01:50:51.541Z,58.30
2022-11-17T01:53:24.483Z,54.50
2022-11-17T01:55:59.123Z,56.60
2022-11-17T01:58:40.612Z,61.00
2022-11-17T02:01:11.302Z,57.70
2022-11-17T02:03:44.380Z,59.20
2022-11-17T02:06:41.418Z,58.20
2022-11-17T02:09:12.210Z,56.30
2022-11-17T02:11:44.435Z,57.20
2022-11-17T02:14:15.431Z,56.50
2022-11-17T02:16:46.908Z,56.30
2022-11-17T02:19:19.592Z,59.50
2022-11-17T02:22:04.436Z,53.90
2022-11-17T02:25:11.471Z,56.90
2022-11-17T02:27:50.417Z,59.10
2022-11-17T02:30:24.672Z,55.20
2022-11-17T02:33:36.606Z,54.60
2022-11-17T02:36:17.373Z,56.20
2022-11-17T02:39:00.760Z,58.40
2022-11-17T02:42:01.285Z,54.40
2022-11-17T02:44:35.865Z,54.40
2022-11-17T02:47:13.246Z,56.40
2022-11-17T02:49:52.309Z,56.40
2022-11-17T02:52:24.480Z,56.40
2022-11-17T02:54:56.533Z,54.20
2022-11-17T02:57:35.577Z,58.70
2022-11-17T03:00:12.903Z,58.50
2022-11-17T03:03:05.317Z,55.60
2022-11-17T03:05:44.626Z,53.00
2022-11-17T03:08:34.530Z,57.40
2022-11-17T03:11:14.187Z,57.50
2022-11-17T03:14:02.875Z,57.00
2022-11-17T03:17:01.748Z,57.40
2022-11-17T03:19:47.080Z,53.40
2022-11-17T03:22:21.043Z,54.80
2022-11-17T03:25:01.412Z,55.20
2022-11-17T03:27:42.996Z,55.60
2022-11-17T03:30:15.088Z,55.50
2022-11-17T03:32:51.629Z,54.70
2022-11-17T03:35:23.396Z,57.80
2022-11-17T03:38:06.678Z,58.20
2022-11-17T03:40:42.949Z,57.10
2022-11-17T03:43:18.029Z,55.80
2022-11-17T03:45:55.917Z,57.30
2022-11-17T03:48:37.163Z,58.10
2022-11-17T03:51:11.304Z,57.10
2022-11-17T03:53:42.245Z,55.90
2022-11-17T03:56:40.142Z,55.90
2022-11-17T03:59:16.940Z,59.30
2022-11-17T04:01:47.705Z,57.10
2022-11-17T04:04:23.340Z,55.50
2022-11-17T04:06:55.670Z,57.00
2022-11-17T04:09:27.003Z,58.40
2022-11-17T04:12:15.615Z,57.30
2022-11-17T04:15:06.776Z,60.00
2022-11-17T04:17:37.686Z,59.50
2022-11-17T04:20:08.979Z,60.20
2022-11-17T04:22:39.715Z,56.00
2022-11-17T04:25:11.104Z,57.50
2022-11-17T04:27:59.912Z,58.40
2022-11-17T04:30:31.019Z,58.20
2022-11-17T04:33:01.683Z,58.30
2022-11-17T04:35:33.281Z,55.00
2022-11-17T04:38:04.087Z,59.20
2022-11-17T04:40:54.677Z,56.00
2022-11-17T04:43:25.315Z,58.00
2022-11-17T04:46:00.740Z,54.60
2022-11-17T04:48:31.696Z,58.30
2022-11-17T04:51:02.308Z,56.40
2022-11-17T04:53:34.682Z,57.40
2022-11-17T04:56:07.680Z,58.20
2022-11-17T04:58:38.698Z,57.20
2022-11-17T05:01:15.709Z,57.90
2022-11-17T05:03:47.966Z,56.60
2022-11-17T05:06:24.987Z,54.20
2022-11-17T05:09:01.769Z,53.90
2022-11-17T05:11:51.246Z,58.80
2022-11-17T05:14:24.733Z,57.60
2022-11-17T05:17:11.521Z,58.60
2022-11-17T05:19:43.209Z,59.20
2022-11-17T05:22:36.271Z,57.60
2022-11-17T05:25:08.439Z,54.40
2022-11-17T05:27:39.428Z,58.60
2022-11-17T05:30:11.247Z,56.70
2022-11-17T05:32:42.105Z,56.10
2022-11-17T05:35:12.947Z,57.40
2022-11-17T05:37:43.672Z,56.90
2022-11-17T05:40:14.987Z,56.20
2022-11-17T05:42:45.657Z,56.60
2022-11-17T05:45:16.704Z,57.80
2022-11-17T05:47:49.409Z,56.90
2022-11-17T05:50:20.947Z,57.70
2022-11-17T05:52:51.630Z,56.70
2022-11-17T05:55:22.304Z,57.90
2022-11-17T05:57:55.017Z,55.40
2022-11-17T06:00:25.774Z,56.50
2022-11-17T06:03:03.184Z,58.00
2022-11-17T06:05:33.969Z,58.50
2022-11-17T06:08:05.018Z,57.70
2022-11-17T06:10:37.364Z,59.60
2022-11-17T06:13:08.283Z,59.20
2022-11-17T06:15:41.155Z,59.40
2022-11-17T06:18:17.563Z,59.10
2022-11-17T06:20:51.408Z,58.40
2022-11-17T06:23:24.478Z,58.40
2022-11-17T06:25:55.361Z,57.70
2022-11-17T06:28:28.172Z,58.20
2022-11-17T06:30:59.331Z,58.10
2022-11-17T06:33:34.068Z,57.90
2022-11-17T06:36:07.948Z,58.20
2022-11-17T06:38:45.482Z,58.30
2022-11-17T06:41:17.056Z,57.70
2022-11-17T06:43:47.715Z,58.10
2022-11-17T06:46:18.781Z,58.10
2022-11-17T06:48:49.768Z,57.20
2022-11-17T06:51:21.532Z,58.10
2022-11-17T06:53:52.599Z,55.80
2022-11-17T06:56:23.507Z,57.20
2022-11-17T06:58:54.863Z,57.30
2022-11-17T07:01:25.712Z,58.00
2022-11-17T07:03:56.486Z,57.20
2022-11-17T07:06:27.217Z,57.40
2022-11-17T07:08:57.969Z,58.80
2022-11-17T07:11:28.596Z,57.90
2022-11-17T07:14:00.676Z,58.60
2022-11-17T07:16:32.907Z,58.30
2022-11-17T07:19:05.686Z,58.60
2022-11-17T07:21:36.549Z,58.90
2022-11-17T07:24:07.894Z,58.60
2022-11-17T07:26:49.979Z,58.30
2022-11-17T07:29:21.014Z,57.60
2022-11-17T07:31:51.703Z,59.50
2022-11-17T07:34:22.699Z,58.80
2022-11-17T07:36:53.404Z,58.40
2022-11-17T07:39:24.366Z,57.60
2022-11-17T07:41:55.287Z,56.50
2022-11-17T07:44:26.184Z,58.10
2022-11-17T07:46:57.349Z,60.20
2022-11-17T07:49:29.270Z,59.70
2022-11-17T07:52:00.062Z,59.10
2022-11-17T07:54:30.448Z,58.10
2022-11-17T07:57:02.837Z,60.50
2022-11-17T07:59:33.967Z,60.80
2022-11-17T08:02:04.661Z,60.90
2022-11-17T08:04:36.617Z,60.80
2022-11-17T08:07:08.132Z,59.10
2022-11-17T08:09:39.997Z,60.80
2022-11-17T08:12:11.204Z,61.80
2022-11-17T08:14:42.461Z,62.80
2022-11-17T08:17:13.211Z,62.60
2022-11-17T08:19:44.445Z,62.10
2022-11-17T08:22:15.136Z,63.10
2022-11-17T08:24:46.362Z,63.00
2022-11-17T08:27:17.465Z,62.70
2022-11-17T08:29:50.219Z,64.40
2022-11-17T08:32:20.991Z,63.00
2022-11-17T08:34:51.995Z,64.80
2022-11-17T08:37:24.946Z,63.00
2022-11-17T08:39:56.040Z,63.20
2022-11-17T08:42:26.754Z,63.10
2022-11-17T08:44:58.712Z,63.00
2022-11-17T08:47:30.443Z,63.40
2022-11-17T08:50:01.346Z,64.10
2022-11-17T08:52:33.488Z,64.00
2022-11-17T08:55:04.947Z,65.10
2022-11-17T08:57:37.292Z,64.70
2022-11-17T09:00:09.337Z,64.90
2022-11-17T09:02:41.388Z,65.50
2022-11-17T09:05:12.848Z,65.70
2022-11-17T09:07:43.895Z,65.90
2022-11-17T09:10:15.204Z,65.60
2022-11-17T09:12:47.342Z,66.30
2022-11-17T09:15:19.392Z,66.30
2022-11-17T09:17:50.380Z,66.10
2022-11-17T09:20:24.021Z,66.10
2022-11-17T09:22:54.665Z,67.00
2022-11-17T09:25:26.559Z,66.60
2022-11-17T09:28:00.556Z,67.20
2022-11-17T09:30:31.306Z,66.70
2022-11-17T09:33:02.994Z,67.20
2022-11-17T09:35:33.640Z,67.40
2022-11-17T09:38:04.983Z,68.60
2022-11-17T09:40:37.985Z,69.80
2022-11-17T09:43:21.592Z,68.80
2022-11-17T09:46:07.363Z,68.60
2022-11-17T09:49:09.870Z,69.00
2022-11-17T09:51:43.692Z,68.70
2022-11-17T09:54:45.139Z,69.00
2022-11-17T09:57:52.243Z,70.40
2022-11-17T10:00:25.370Z,69.60
2022-11-17T10:03:00.232Z,70.30
2022-11-17T10:05:38.955Z,70.60
2022-11-17T10:08:16.411Z,70.30
2022-11-17T10:10:53.408Z,71.40
2022-11-17T10:13:38.992Z,73.20
2022-11-17T10:16:16.020Z,73.70
2022-11-17T10:18:47.688Z,73.80
2022-11-17T10:21:18.959Z,72.50
2022-11-17T10:24:00.763Z,73.80
2022-11-17T10:26:31.664Z,73.40
2022-11-17T10:29:13.239Z,75.00
2022-11-17T10:31:48.897Z,74.20
2022-11-17T10:34:45.094Z,75.50
2022-11-17T10:37:18.505Z,77.70
2022-11-17T10:39:49.501Z,79.70
2022-11-17T10:42:33.836Z,80.30
2022-11-17T10:45:05.990Z,81.70
2022-11-17T10:47:44.423Z,82.00
2022-11-17T10:50:31.165Z,82.90
2022-11-17T10:53:38.129Z,83.70
2022-11-17T10:56:21.961Z,84.20
2022-11-17T10:58:58.970Z,84.50
2022-11-17T11:01:38.861Z,85.00
2022-11-17T11:04:30.813Z,85.00
2022-11-17T11:07:25.223Z,86.10
2022-11-17T11:10:23.066Z,85.30
2022-11-17T11:13:26.190Z,86.60
2022-11-17T11:15:56.873Z,86.10
2022-11-17T11:18:30.650Z,87.30
2022-11-17T11:21:26.171Z,87.80
2022-11-17T11:24:09.811Z,88.50
2022-11-17T11:27:12.793Z,89.00
2022-11-17T11:29:53.504Z,90.00
2022-11-17T11:32:29.994Z,88.80
2022-11-17T11:35:17.502Z,89.40
2022-11-17T11:38:02.528Z,90.00
2022-11-17T11:40:41.006Z,89.90
2022-11-17T11:43:20.292Z,90.00
2022-11-17T11:46:11.092Z,90.00
2022-11-17T11:48:44.229Z,90.30
2022-11-17T11:51:37.188Z,90.40
2022-11-17T11:54:19.022Z,90.00
2022-11-17T11:56:53.442Z,90.50
2022-11-17T12:00:00.852Z,90.70
2022-11-17T12:02:50.207Z,90.50
2022-11-17T12:05:28.008Z,90.80
2022-11-17T12:08:44.247Z,91.00
2022-11-17T12:11:36.926Z,90.90
2022-11-17T12:14:11.280Z,91.40
2022-11-17T12:16:45.306Z,91.40
2022-11-17T12:19:52.653Z,91.30
2022-11-17T12:22:44.968Z,91.60
2022-11-17T12:25:30.365Z,91.20
2022-11-17T12:28:02.273Z,91.30
2022-11-17T12:30:36.569Z,91.50
2022-11-17T12:33:10.613Z,91.50
2022-11-17T12:35:42.805Z,91.30
2022-11-17T12:38:19.591Z,91.20
2022-11-17T12:40:54.122Z,91.20
2022-11-17T12:43:27.344Z,91.20
2022-11-17T12:46:26.519Z,91.40
2022-11-17T12:49:17.093Z,91.70
2022-11-17T12:51:58.730Z,91.60
2022-11-17T12:54:48.676Z,91.90
2022-11-17T12:57:26.522Z,92.00
2022-11-17T13:00:08.807Z,91.70
2022-11-17T13:02:45.657Z,92.10
2022-11-17T13:05:22.844Z,92.40
2022-11-17T13:08:10.265Z,92.50
2022-11-17T13:10:40.854Z,91.90
2022-11-17T13:13:25.657Z,92.60
2022-11-17T13:16:02.292Z,92.90
2022-11-17T13:18:36.922Z,92.40
2022-11-17T13:21:19.475Z,92.40
2022-11-17T13:23:51.299Z,92.80
2022-11-17T13:26:38.046Z,92.00
2022-11-17T13:29:17.461Z,92.20
2022-11-17T13:31:48.752Z,92.80
2022-11-17T13:34:25.747Z,93.00
2022-11-17T13:37:03.903Z,92.80
2022-11-17T13:39:34.583Z,92.90
2022-11-17T13:42:07.907Z,92.80
2022-11-17T13:44:40.017Z,93.40
2022-11-17T13:47:45.731Z,92.90
2022-11-17T13:50:25.833Z,93.00
2022-11-17T13:53:02.092Z,92.80
2022-11-17T13:55:34.564Z,92.80
2022-11-17T13:58:26.254Z,92.50
2022-11-17T14:01:01.597Z,92.80
2022-11-17T14:03:39.206Z,92.80
2022-11-17T14:06:15.692Z,92.60
2022-11-17T14:09:05.226Z,92.60
2022-11-17T14:11:35.826Z,92.60
2022-11-17T14:14:16.685Z,92.80
2022-11-17T14:16:51.461Z,93.10
2022-11-17T14:19:40.248Z,93.30
2022-11-17T14:22:22.351Z,92.80
2022-11-17T14:24:57.298Z,93.00
2022-11-17T14:27:35.341Z,92.90
2022-11-17T14:30:10.657Z,93.00
2022-11-17T14:32:47.076Z,92.90
2022-11-17T14:37:50.531Z,92.70
2022-11-17T14:40:21.561Z,92.50
2022-11-17T14:42:52.175Z,92.30
2022-11-17T14:45:23.122Z,92.40
2022-11-17T14:47:53.860Z,92.60
2022-11-17T14:50:24.518Z,92.80
2022-11-17T14:52:55.147Z,92.70
2022-11-17T14:55:25.787Z,92.50
2022-11-17T14:57:56.521Z,92.40
2022-11-17T15:00:27.216Z,92.40
2022-11-17T15:02:59.398Z,92.50
2022-11-17T15:05:30.214Z,92.30
2022-11-17T15:08:01.284Z,92.30
2022-11-17T15:10:32.828Z,92.20
2022-11-17T15:13:04.049Z,91.80
2022-11-17T15:15:35.325Z,91.00
2022-11-17T15:18:06.515Z,91.00
2022-11-17T15:20:37.462Z,90.70
2022-11-17T15:23:08.392Z,90.40
2022-11-17T15:25:42.971Z,90.50
2022-11-17T15:28:20.527Z,90.10
2022-11-17T15:30:53.339Z,90.20
2022-11-17T15:33:24.392Z,90.10
2022-11-17T15:36:09.002Z,90.20
2022-11-17T15:38:41.165Z,88.30
2022-11-17T15:41:14.127Z,87.40
2022-11-17T15:43:46.316Z,88.00
2022-11-17T15:46:19.441Z,88.50
2022-11-17T15:48:54.638Z,88.80
2022-11-17T15:51:28.206Z,86.80
2022-11-17T15:54:04.572Z,87.50
2022-11-17T15:56:41.318Z,85.80
2022-11-17T15:59:14.719Z,87.20
2022-11-17T16:01:46.995Z,87.80
2022-11-17T16:04:19.230Z,87.90
2022-11-17T16:06:50.521Z,88.00
2022-11-17T16:09:21.121Z,87.90
2022-11-17T16:11:51.489Z,87.80
2022-11-17T16:14:22.188Z,87.40
2022-11-17T16:16:52.794Z,88.00
2022-11-17T16:19:23.773Z,88.70
2022-11-17T16:21:54.179Z,88.70
2022-11-17T16:24:25.153Z,88.40
2022-11-17T16:26:55.473Z,89.00
2022-11-17T16:29:26.773Z,88.60
2022-11-17T16:31:58.490Z,88.20
2022-11-17T16:34:29.065Z,89.30
2022-11-17T16:36:59.357Z,88.80
2022-11-17T16:39:29.632Z,89.00
2022-11-17T16:42:01.889Z,88.60
2022-11-17T16:44:32.717Z,88.80
2022-11-17T16:47:03.107Z,88.70
2022-11-17T16:49:34.934Z,88.90
2022-11-17T16:52:05.637Z,89.10
2022-11-17T16:54:35.958Z,88.70
2022-11-17T16:57:06.808Z,90.20
2022-11-17T16:59:38.481Z,88.40
2022-11-17T17:02:08.690Z,89.40
2022-11-17T17:04:39.022Z,90.20
2022-11-17T17:07:09.310Z,90.00
2022-11-17T17:09:40.170Z,90.60
2022-11-17T17:12:10.783Z,90.10
2022-11-17T17:14:41.354Z,89.60
2022-11-17T17:17:11.986Z,89.70
2022-11-17T17:19:42.419Z,90.00
2022-11-17T17:22:13.838Z,90.20
2022-11-17T17:24:45.058Z,90.30
2022-11-17T17:27:15.709Z,90.50
2022-11-17T17:29:46.994Z,90.10
2022-11-17T17:32:17.698Z,90.40
2022-11-17T17:34:48.373Z,90.30
2022-11-17T17:37:19.149Z,90.20
2022-11-17T17:39:49.490Z,90.30
2022-11-17T17:42:19.691Z,90.70
2022-11-17T17:44:49.987Z,90.70
2022-11-17T17:47:20.400Z,90.80
2022-11-17T17:49:50.699Z,90.80
2022-11-17T17:52:21.019Z,90.80
2022-11-17T17:54:51.773Z,91.00
2022-11-17T17:57:22.791Z,91.10
2022-11-17T17:59:53.791Z,91.20
2022-11-17T18:02:25.451Z,91.20
2022-11-17T18:04:56.652Z,91.30
2022-11-17T18:07:27.380Z,91.60
2022-11-17T18:09:58.244Z,91.30
2022-11-17T18:12:28.535Z,92.00
2022-11-17T18:14:59.053Z,91.60
2022-11-17T18:17:29.281Z,91.60
2022-11-17T18:19:59.953Z,91.50
2022-11-17T18:22:30.678Z,91.70
2022-11-17T18:25:02.880Z,91.90
2022-11-17T18:27:38.675Z,91.80
2022-11-17T18:30:10.179Z,92.00
2022-11-17T18:32:40.546Z,91.90
2022-11-17T18:35:11.210Z,92.00
2022-11-17T18:37:41.654Z,92.00
2022-11-17T18:40:13.828Z,91.90
2022-11-17T18:42:44.774Z,92.70
2022-11-17T18:45:16.458Z,92.00
2022-11-17T18:47:47.429Z,92.30
2022-11-17T18:50:18.116Z,93.00
2022-11-17T18:52:48.905Z,92.60
2022-11-17T18:55:19.452Z,92.60
2022-11-17T18:57:51.637Z,92.80
2022-11-17T19:00:22.512Z,93.10
2022-11-17T19:02:53.247Z,92.70
2022-11-17T19:05:23.517Z,92.50
2022-11-17T19:07:57.970Z,93.10
2022-11-17T19:10:28.739Z,93.30
2022-11-17T19:13:01.375Z,93.20
2022-11-17T19:15:32.096Z,93.20
2022-11-17T19:18:03.244Z,92.70
2022-11-17T19:20:33.959Z,93.00
2022-11-17T19:23:04.304Z,93.50
2022-11-17T19:25:34.692Z,93.30
2022-11-17T19:28:05.176Z,93.60
2022-11-17T19:30:36.611Z,93.50
2022-11-17T19:33:07.488Z,93.50
2022-11-17T19:35:41.903Z,93.20
2022-11-17T19:38:13.037Z,93.30
2022-11-17T19:40:43.335Z,93.30
2022-11-17T19:43:15.065Z,93.50
2022-11-17T19:45:45.337Z,93.20
2022-11-17T19:48:16.414Z,93.40
2022-11-17T19:50:48.501Z,93.80
2022-11-17T19:53:21.169Z,93.80
2022-11-17T19:55:51.997Z,93.50
2022-11-17T19:58:24.325Z,93.30
2022-11-17T20:00:55.339Z,93.40
2022-11-17T20:03:26.454Z,93.50
2022-11-17T20:06:02.656Z,93.00
2022-11-17T20:08:33.598Z,93.10
2022-11-17T20:11:14.461Z,92.90
2022-11-17T20:13:53.348Z,92.70
2022-11-17T20:16:29.501Z,92.00
2022-11-17T20:19:03.968Z,91.20
2022-11-17T20:21:35.785Z,90.90
2022-11-17T20:24:06.438Z,91.10
2022-11-17T20:26:39.990Z,91.00
2022-11-17T20:29:11.335Z,90.30
2022-11-17T20:31:42.237Z,90.80
2022-11-17T20:34:15.474Z,90.90
2022-11-17T20:36:45.981Z,90.80
2022-11-17T20:39:17.991Z,89.20
2022-11-17T20:41:48.481Z,89.80
2022-11-17T20:44:28.019Z,89.60
2022-11-17T20:46:58.840Z,87.40
2022-11-17T20:49:31.275Z,88.80
2022-11-17T20:52:02.013Z,88.10
2022-11-17T20:54:34.600Z,88.00
2022-11-17T20:57:05.648Z,87.20
2022-11-17T20:59:37.520Z,87.70
2022-11-17T21:02:09.070Z,85.80
2022-11-17T21:04:41.111Z,86.40
2022-11-17T21:07:12.998Z,85.80
2022-11-17T21:09:45.197Z,86.90
2022-11-17T21:12:15.799Z,85.70
2022-11-17T21:14:46.244Z,84.70
2022-11-17T21:17:36.304Z,83.50
2022-11-17T21:20:06.920Z,80.40
2022-11-17T21:22:37.610Z,80.60
2022-11-17T21:25:08.378Z,79.10
2022-11-17T21:27:39.364Z,75.90
2022-11-17T21:30:11.308Z,75.50
2022-11-17T21:32:43.021Z,75.30
2022-11-17T21:35:14.116Z,74.20
2022-11-17T21:37:44.702Z,74.30
2022-11-17T21:40:16.104Z,73.10
2022-11-17T21:42:46.796Z,71.80
2022-11-17T21:45:18.704Z,70.10
2022-11-17T21:47:52.924Z,69.00
2022-11-17T21:50:27.735Z,69.40
2022-11-17T21:52:58.493Z,68.60
2022-11-17T21:55:29.843Z,69.60
2022-11-17T21:58:02.892Z,67.60
2022-11-17T22:00:33.647Z,67.30
2022-11-17T22:03:03.961Z,67.00
2022-11-17T22:05:34.504Z,67.50
2022-11-17T22:08:05.153Z,65.20
2022-11-17T22:10:37.626Z,66.90
2022-11-17T22:13:09.991Z,65.30
2022-11-17T22:15:40.666Z,64.40
2022-11-17T22:18:10.957Z,65.90
2022-11-17T22:20:41.507Z,67.50
2022-11-17T22:23:11.701Z,66.30
2022-11-17T22:25:46.082Z,67.10
2022-11-17T22:28:16.990Z,66.50
2022-11-17T22:30:47.908Z,66.00
2022-11-17T22:33:18.160Z,65.10
2022-11-17T22:35:49.021Z,62.70
2022-11-17T22:38:25.675Z,63.90
2022-11-17T22:41:00.742Z,64.80
2022-11-17T22:43:31.797Z,64.50
2022-11-17T22:46:07.706Z,65.40
2022-11-17T22:48:41.446Z,66.80
2022-11-17T22:51:15.302Z,65.60
2022-11-17T22:53:45.529Z,66.00
2022-11-17T22:56:16.465Z,66.80
2022-11-17T22:58:49.882Z,67.00
2022-11-17T23:01:21.251Z,66.10
2022-11-17T23:03:51.924Z,67.60
2022-11-17T23:06:24.563Z,65.60
2022-11-17T23:08:56.200Z,64.60
2022-11-17T23:11:37.517Z,65.30
2022-11-17T23:14:11.562Z,63.30
2022-11-17T23:16:42.415Z,67.60
2022-11-17T23:19:15.859Z,66.20
2022-11-17T23:21:46.880Z,65.00
2022-11-17T23:24:18.044Z,64.80
2022-11-17T23:26:48.389Z,66.70
2022-11-17T23:29:18.942Z,63.30
2022-11-17T23:31:49.597Z,62.00
2022-11-17T23:34:19.936Z,63.10
2022-11-17T23:36:50.790Z,63.00
2022-11-17T23:39:21.735Z,61.50
2022-11-17T23:41:52.049Z,61.50
2022-11-17T23:44:22.401Z,61.60
2022-11-17T23:46:52.727Z,62.90
2022-11-17T23:49:24.064Z,60.10
2022-11-17T23:51:54.820Z,61.10
2022-11-17T23:54:25.056Z,60.40
2022-11-17T23:56:55.920Z,62.10
2022-11-17T23:59:26.172Z,61.20
